Time;durP1;ratioP1;P1;durP2;ratioP2;P2;SDS_P1;SDS_P2;PMS_P1;PMS_P2;Temp;Humidity;BMP_temperature;BMP_pressure;BME280_temperature;BME280_humidity;BME280_pressure;Samples;Min_cycle;Max_cycle;Signal;HPM_P1;HPM_P2
2023/04/08 00:01:12;;;;;;;15.20;6.90;;;;;;;;;;5050658;28;20135;-70
2023/04/08 00:03:39;;;;;;;15.50;7.38;;;;;;;;;;5056888;28;20156;-69
2023/04/08 00:06:07;;;;;;;14.35;6.50;;;;;;;;;;5037863;28;20056;-71
2023/04/08 00:08:33;;;;;;;17.27;7.03;;;;;;;;;;5027966;28;20056;-67
2023/04/08 00:11:01;;;;;;;14.77;6.90;;;;;;;;;;5038615;28;20056;-69
2023/04/08 00:13:28;;;;;;;13.18;6.80;;;;;;;;;;5028366;28;21384;-68
2023/04/08 00:15:55;;;;;;;15.68;7.07;;;;;;;;;;5050013;28;20054;-67
2023/04/08 00:18:22;;;;;;;14.90;7.20;;;;;;;;;;5053945;28;20052;-69
2023/04/08 00:20:48;;;;;;;17.52;7.15;;;;;;;;;;5035136;28;20072;-68
2023/04/08 00:23:15;;;;;;;15.70;6.70;;;;;;;;;;5050951;28;20063;-70
2023/04/08 00:25:41;;;;;;;16.90;7.63;;;;;;;;;;5054651;28;20053;-67
2023/04/08 00:28:08;;;;;;;15.63;7.60;;;;;;;;;;5039810;28;20061;-70
2023/04/08 00:30:34;;;;;;;14.73;6.97;;;;;;;;;;5035530;28;20091;-67
2023/04/08 00:33:03;;;;;;;13.63;6.78;;;;;;;;;;5030345;28;20052;-68
2023/04/08 00:35:29;;;;;;;13.75;6.53;;;;;;;;;;5036712;28;20170;-70
2023/04/08 00:37:56;;;;;;;13.43;6.95;;;;;;;;;;5031179;28;20120;-69
2023/04/08 00:40:22;;;;;;;14.43;6.88;;;;;;;;;;5036231;28;20080;-69
2023/04/08 00:42:48;;;;;;;13.23;6.43;;;;;;;;;;5016938;28;20135;-68
2023/04/08 00:45:15;;;;;;;14.75;7.15;;;;;;;;;;5056029;28;20060;-70
2023/04/08 00:47:42;;;;;;;15.38;7.30;;;;;;;;;;5036926;28;20059;-69
2023/04/08 00:50:11;;;;;;;16.80;7.60;;;;;;;;;;5036487;28;20135;-69
2023/04/08 00:52:37;;;;;;;13.30;6.75;;;;;;;;;;5036818;28;20057;-70
2023/04/08 00:55:04;;;;;;;14.50;6.65;;;;;;;;;;5010746;28;20110;-71
2023/04/08 00:57:30;;;;;;;15.27;6.95;;;;;;;;;;5061693;28;20053;-67
2023/04/08 00:59:57;;;;;;;13.70;6.72;;;;;;;;;;5036018;28;20168;-71
2023/04/08 01:02:26;;;;;;;12.68;6.55;;;;;;;;;;5036513;28;20052;-69
2023/04/08 01:05:00;;;;;;;15.80;7.35;;;;;;;;;;5012270;28;20198;-68
2023/04/08 01:07:29;;;;;;;15.50;7.32;;;;;;;;;;5051166;28;20079;-67
2023/04/08 01:09:56;;;;;;;16.55;6.93;;;;;;;;;;5032969;28;20044;-69
2023/04/08 01:12:28;;;;;;;15.60;6.90;;;;;;;;;;5036643;28;20072;-67
2023/04/08 01:14:57;;;;;;;16.05;7.65;;;;;;;;;;5028672;28;20116;-66
2023/04/08 01:17:24;;;;;;;13.63;6.70;;;;;;;;;;5037053;28;20079;-70
2023/04/08 01:19:51;;;;;;;12.65;6.28;;;;;;;;;;5037509;28;20309;-68
2023/04/08 01:22:21;;;;;;;14.23;6.68;;;;;;;;;;5037324;28;20049;-69
2023/04/08 01:24:50;;;;;;;16.25;7.60;;;;;;;;;;5050331;28;20187;-68
2023/04/08 01:27:19;;;;;;;13.95;7.28;;;;;;;;;;5036982;28;20144;-70
2023/04/08 01:29:45;;;;;;;;;;;;;;;;;;5035610;28;20056;-68
2023/04/08 01:32:12;;;;;;;13.43;6.57;;;;;;;;;;5054918;28;19986;-69
2023/04/08 01:34:39;;;;;;;15.20;6.82;;;;;;;;;;5057895;28;20087;-69
2023/04/08 01:37:06;;;;;;;15.75;6.57;;;;;;;;;;5031462;28;20103;-67
2023/04/08 01:39:33;;;;;;;13.85;6.13;;;;;;;;;;5038750;28;20049;-70
2023/04/08 01:42:01;;;;;;;15.07;6.97;;;;;;;;;;5012893;28;20126;-69
2023/04/08 01:44:30;;;;;;;13.57;6.22;;;;;;;;;;5035303;28;20113;-68
2023/04/08 01:46:56;;;;;;;16.15;6.80;;;;;;;;;;5032687;28;20060;-69
2023/04/08 01:49:23;;;;;;;14.63;6.90;;;;;;;;;;5040159;28;20084;-70
2023/04/08 01:51:51;;;;;;;13.77;6.43;;;;;;;;;;5058586;28;20061;-70
2023/04/08 01:54:18;;;;;;;13.50;6.28;;;;;;;;;;5040661;28;20055;-69
2023/04/08 01:56:45;;;;;;;12.93;6.30;;;;;;;;;;5043333;28;20052;-68
2023/04/08 01:59:13;;;;;;;12.98;6.88;;;;;;;;;;5048127;28;20080;-69
2023/04/08 02:01:41;;;;;;;13.18;6.50;;;;;;;;;;5049215;28;20056;-69
2023/04/08 02:04:08;;;;;;;12.43;6.18;;;;;;;;;;5042816;28;20075;-66
2023/04/08 02:06:34;;;;;;;12.60;6.40;;;;;;;;;;5058577;28;20080;-69
2023/04/08 02:09:01;;;;;;;14.55;6.43;;;;;;;;;;5029156;28;20067;-69
2023/04/08 02:11:28;;;;;;;12.88;6.00;;;;;;;;;;5038510;28;20137;-68
2023/04/08 02:13:55;;;;;;;12.52;5.95;;;;;;;;;;5042840;28;20049;-67
2023/04/08 02:16:23;;;;;;;13.73;7.00;;;;;;;;;;5036480;28;20072;-68
2023/04/08 02:18:55;;;;;;;12.30;5.85;;;;;;;;;;5011402;28;20056;-70
2023/04/08 02:21:22;;;;;;;12.57;6.03;;;;;;;;;;5052416;28;20068;-68
2023/04/08 02:23:51;;;;;;;13.05;5.97;;;;;;;;;;5044146;28;20119;-69
2023/04/08 02:26:17;;;;;;;12.02;6.05;;;;;;;;;;5059764;28;20079;-67
2023/04/08 02:28:44;;;;;;;11.05;5.57;;;;;;;;;;5039797;28;20113;-67
2023/04/08 02:31:12;;;;;;;12.55;6.32;;;;;;;;;;5039344;28;20056;-68
2023/04/08 02:33:39;;;;;;;11.82;6.22;;;;;;;;;;5037873;28;20068;-68
2023/04/08 02:36:08;;;;;;;11.30;5.80;;;;;;;;;;5039440;28;20144;-67
2023/04/08 02:38:34;;;;;;;;;;;;;;;;;;5050141;28;20143;-69
2023/04/08 02:41:01;;;;;;;11.65;5.38;;;;;;;;;;5056253;28;19936;-70
2023/04/08 02:43:31;;;;;;;12.38;5.65;;;;;;;;;;5049806;28;20277;-67
2023/04/08 02:45:58;;;;;;;13.52;5.53;;;;;;;;;;5047368;28;20060;-69
2023/04/08 02:48:24;;;;;;;12.07;5.90;;;;;;;;;;5039089;28;20056;-68
2023/04/08 02:50:51;;;;;;;11.85;5.60;;;;;;;;;;5038998;28;20062;-70
2023/04/08 02:53:20;;;;;;;10.05;5.25;;;;;;;;;;5031148;28;20082;-68
2023/04/08 02:55:46;;;;;;;11.13;5.40;;;;;;;;;;5043480;28;20056;-67
2023/04/08 02:58:13;;;;;;;10.18;4.97;;;;;;;;;;5044156;28;20087;-68
2023/04/08 03:00:39;;;;;;;12.23;5.45;;;;;;;;;;5047601;28;20076;-70
2023/04/08 03:03:06;;;;;;;9.63;5.10;;;;;;;;;;5055611;28;20044;-70
2023/04/08 03:05:34;;;;;;;9.75;5.07;;;;;;;;;;5023391;28;20052;-67
2023/04/08 03:08:01;;;;;;;10.27;5.00;;;;;;;;;;5029269;28;20052;-70
2023/04/08 03:10:29;;;;;;;11.07;5.00;;;;;;;;;;5038543;28;20075;-68
2023/04/08 03:12:56;;;;;;;9.00;4.63;;;;;;;;;;5056700;28;20060;-67
2023/04/08 03:15:22;;;;;;;9.98;5.10;;;;;;;;;;5019781;28;20071;-68
2023/04/08 03:17:49;;;;;;;10.57;5.20;;;;;;;;;;5030900;28;20060;-70
2023/04/08 03:20:15;;;;;;;9.05;4.47;;;;;;;;;;5028739;28;20103;-68
2023/04/08 03:22:41;;;;;;;8.82;4.65;;;;;;;;;;5056637;28;20098;-67
2023/04/08 03:25:08;;;;;;;9.80;4.80;;;;;;;;;;5036840;28;20053;-68
2023/04/08 03:27:36;;;;;;;8.95;4.43;;;;;;;;;;5052131;28;20137;-68
2023/04/08 03:30:03;;;;;;;8.97;4.40;;;;;;;;;;5038794;28;20052;-68
2023/04/08 03:32:29;;;;;;;9.18;4.82;;;;;;;;;;5027661;28;20048;-67
2023/04/08 03:34:56;;;;;;;9.60;4.88;;;;;;;;;;5055519;28;20060;-69
2023/04/08 03:37:23;;;;;;;10.88;4.53;;;;;;;;;;5049691;28;20130;-69
2023/04/08 03:39:49;;;;;;;12.77;4.80;;;;;;;;;;5044582;28;20060;-68
2023/04/08 03:42:15;;;;;;;9.02;4.30;;;;;;;;;;5038352;28;20056;-67
2023/04/08 03:44:43;;;;;;;10.68;4.32;;;;;;;;;;5047106;28;20052;-70
2023/04/08 03:47:10;;;;;;;9.02;4.43;;;;;;;;;;5054801;28;20056;-67
2023/04/08 03:49:36;;;;;;;8.88;4.30;;;;;;;;;;5043195;28;20110;-69
2023/04/08 03:52:02;;;;;;;9.18;4.18;;;;;;;;;;5037719;28;20112;-69
2023/04/08 03:54:29;;;;;;;9.05;3.88;;;;;;;;;;5065558;28;20132;-67
2023/04/08 03:56:56;;;;;;;9.05;4.35;;;;;;;;;;5041721;28;20073;-69
2023/04/08 03:59:23;;;;;;;8.48;3.78;;;;;;;;;;5056103;28;20064;-68
2023/04/08 04:01:52;;;;;;;10.45;4.63;;;;;;;;;;5018333;28;20091;-67
2023/04/08 04:04:19;;;;;;;8.48;4.40;;;;;;;;;;5031619;28;20088;-69
2023/04/08 04:06:45;;;;;;;8.23;4.45;;;;;;;;;;5056349;28;20053;-70
2023/04/08 04:09:12;;;;;;;8.95;4.20;;;;;;;;;;5052485;28;20060;-67
2023/04/08 04:11:38;;;;;;;9.80;4.32;;;;;;;;;;5037972;28;20052;-68
2023/04/08 04:14:05;;;;;;;8.88;3.92;;;;;;;;;;5037364;28;20059;-70
2023/04/08 04:16:31;;;;;;;8.60;4.20;;;;;;;;;;5028881;28;20148;-69
2023/04/08 04:18:59;;;;;;;7.43;3.72;;;;;;;;;;5027155;28;20125;-70
2023/04/08 04:21:25;;;;;;;8.93;4.03;;;;;;;;;;5050154;28;20056;-71
2023/04/08 04:23:52;;;;;;;9.77;4.70;;;;;;;;;;5044274;28;20052;-69
2023/04/08 04:26:19;;;;;;;8.90;4.25;;;;;;;;;;5016519;28;20052;-68
2023/04/08 04:28:46;;;;;;;9.93;4.40;;;;;;;;;;5055610;28;20143;-67
2023/04/08 04:31:18;;;;;;;8.65;4.18;;;;;;;;;;5030449;28;20052;-69
2023/04/08 04:33:44;;;;;;;9.10;4.47;;;;;;;;;;5055611;28;20056;-70
2023/04/08 04:36:12;;;;;;;9.65;4.47;;;;;;;;;;5052278;28;20062;-68
2023/04/08 04:38:38;;;;;;;11.27;4.50;;;;;;;;;;5025418;28;20088;-70
2023/04/08 04:41:05;;;;;;;9.20;4.28;;;;;;;;;;5007875;28;20122;-68
2023/04/08 04:43:32;;;;;;;9.65;4.32;;;;;;;;;;5004840;28;20176;-70
2023/04/08 04:45:59;;;;;;;8.15;4.15;;;;;;;;;;5034236;28;20099;-68
2023/04/08 04:48:26;;;;;;;9.30;4.90;;;;;;;;;;5026526;28;20053;-67
2023/04/08 04:50:55;;;;;;;10.40;4.38;;;;;;;;;;5035578;28;20368;-68
2023/04/08 04:53:23;;;;;;;7.82;4.35;;;;;;;;;;5047495;28;20056;-68
2023/04/08 04:55:50;;;;;;;9.23;4.50;;;;;;;;;;5041143;28;20087;-69
2023/04/08 04:58:16;;;;;;;9.95;4.75;;;;;;;;;;5051938;28;20056;-68
2023/04/08 05:00:43;;;;;;;9.38;4.70;;;;;;;;;;5047233;28;20141;-69
2023/04/08 05:03:10;;;;;;;9.90;5.13;;;;;;;;;;5045095;28;20048;-69
2023/04/08 05:05:37;;;;;;;9.77;4.60;;;;;;;;;;5042476;28;20124;-67
2023/04/08 05:08:04;;;;;;;10.02;4.70;;;;;;;;;;5054912;28;20056;-69
2023/04/08 05:10:31;;;;;;;9.85;4.97;;;;;;;;;;5040108;28;20064;-69
2023/04/08 05:12:58;;;;;;;9.33;4.77;;;;;;;;;;5039627;28;20059;-67
2023/04/08 05:15:24;;;;;;;11.57;4.93;;;;;;;;;;5023736;28;20254;-68
2023/04/08 05:17:51;;;;;;;9.65;4.68;;;;;;;;;;5048465;28;20067;-69
2023/04/08 05:20:17;;;;;;;9.52;4.50;;;;;;;;;;5047711;28;20102;-69
2023/04/08 05:22:44;;;;;;;10.63;4.65;;;;;;;;;;5028325;28;20163;-68
2023/04/08 05:25:11;;;;;;;10.18;4.68;;;;;;;;;;5042672;28;20056;-69
2023/04/08 05:27:40;;;;;;;9.77;4.78;;;;;;;;;;5052115;28;20075;-68
2023/04/08 05:30:08;;;;;;;9.52;4.88;;;;;;;;;;5057440;28;20060;-70
2023/04/08 05:32:35;;;;;;;9.88;4.43;;;;;;;;;;5038624;28;20056;-70
2023/04/08 05:35:02;;;;;;;9.13;4.97;;;;;;;;;;5039315;28;20079;-68
2023/04/08 05:37:30;;;;;;;9.05;4.60;;;;;;;;;;5033632;28;20141;-69
2023/04/08 05:39:57;;;;;;;10.32;4.60;;;;;;;;;;5048096;28;20106;-68
2023/04/08 05:42:23;;;;;;;9.13;4.32;;;;;;;;;;5048978;28;20063;-70
2023/04/08 05:44:51;;;;;;;9.48;4.75;;;;;;;;;;5057242;28;20147;-70
2023/04/08 05:47:18;;;;;;;11.40;5.07;;;;;;;;;;5022349;28;20075;-70
2023/04/08 05:49:44;;;;;;;10.07;4.60;;;;;;;;;;5040887;28;20135;-71
2023/04/08 05:52:10;;;;;;;9.90;4.50;;;;;;;;;;5030678;28;20084;-70
2023/04/08 05:54:42;;;;;;;8.18;4.07;;;;;;;;;;5041238;28;20052;-70
2023/04/08 05:57:09;;;;;;;8.82;4.57;;;;;;;;;;5055237;28;20084;-70
2023/04/08 05:59:35;;;;;;;10.10;4.50;;;;;;;;;;5050903;28;21695;-68
2023/04/08 06:02:04;;;;;;;10.93;4.78;;;;;;;;;;5044775;28;20139;-68
2023/04/08 06:04:30;;;;;;;10.30;5.00;;;;;;;;;;5015125;28;20075;-70
2023/04/08 06:06:58;;;;;;;7.85;4.07;;;;;;;;;;5039068;28;20049;-68
2023/04/08 06:09:27;;;;;;;9.82;4.65;;;;;;;;;;5047934;28;20071;-68
2023/04/08 06:11:56;;;;;;;11.10;4.93;;;;;;;;;;5056818;28;20087;-69
2023/04/08 06:14:23;;;;;;;9.80;4.50;;;;;;;;;;5019374;28;20078;-69
2023/04/08 06:16:51;;;;;;;8.07;4.38;;;;;;;;;;5056165;28;20045;-68
2023/04/08 06:19:20;;;;;;;9.32;4.60;;;;;;;;;;5030540;28;20144;-71
2023/04/08 06:21:46;;;;;;;9.32;4.68;;;;;;;;;;5038567;28;20056;-70
2023/04/08 06:24:15;;;;;;;9.25;4.75;;;;;;;;;;5032265;28;20143;-70
2023/04/08 06:26:42;;;;;;;10.27;4.78;;;;;;;;;;5047656;28;20098;-69
2023/04/08 06:29:10;;;;;;;9.20;4.72;;;;;;;;;;5039816;28;20131;-68
2023/04/08 06:31:36;;;;;;;9.50;4.30;;;;;;;;;;5034795;28;20056;-70
2023/04/08 06:34:03;;;;;;;8.75;4.35;;;;;;;;;;5050230;28;20056;-71
2023/04/08 06:36:31;;;;;;;9.25;4.72;;;;;;;;;;5058038;28;20072;-68
2023/04/08 06:38:57;;;;;;;9.80;4.78;;;;;;;;;;5018059;28;20070;-69
2023/04/08 06:41:24;;;;;;;9.43;4.35;;;;;;;;;;5020231;28;20090;-69
2023/04/08 06:43:55;;;;;;;9.80;4.90;;;;;;;;;;5032873;28;20079;-71
2023/04/08 06:46:22;;;;;;;9.73;4.68;;;;;;;;;;5033726;28;20056;-71
2023/04/08 06:48:49;;;;;;;9.20;4.53;;;;;;;;;;5020112;28;20063;-70
2023/04/08 06:51:18;;;;;;;9.02;4.65;;;;;;;;;;5024931;28;20053;-69
2023/04/08 06:53:48;;;;;;;9.98;4.65;;;;;;;;;;5036655;28;20139;-70
2023/04/08 06:56:15;;;;;;;8.32;4.43;;;;;;;;;;5022310;28;20147;-70
2023/04/08 06:58:41;;;;;;;9.95;5.07;;;;;;;;;;5036573;28;20067;-68
2023/04/08 07:01:08;;;;;;;10.23;4.75;;;;;;;;;;5033319;28;20147;-72
2023/04/08 07:03:48;;;;;;;8.43;4.35;;;;;;;;;;5018829;28;20348;-71
2023/04/08 07:06:16;;;;;;;10.07;4.53;;;;;;;;;;5012645;28;20132;-67
2023/04/08 07:08:42;;;;;;;9.57;4.28;;;;;;;;;;5027623;28;20081;-70
2023/04/08 07:11:13;;;;;;;9.63;4.57;;;;;;;;;;5002129;28;20140;-68
2023/04/08 07:13:41;;;;;;;8.73;4.35;;;;;;;;;;5031787;28;20091;-70
2023/04/08 07:16:09;;;;;;;10.20;4.53;;;;;;;;;;5015735;28;20063;-68
2023/04/08 07:18:37;;;;;;;9.23;4.90;;;;;;;;;;5023319;28;20126;-70
2023/04/08 07:21:03;;;;;;;10.40;4.88;;;;;;;;;;5050768;28;20056;-69
2023/04/08 07:23:34;;;;;;;10.55;4.50;;;;;;;;;;5019634;28;20057;-70
2023/04/08 07:26:04;;;;;;;10.52;4.88;;;;;;;;;;5041701;28;20074;-68
2023/04/08 07:28:36;;;;;;;8.95;4.63;;;;;;;;;;5035371;28;20088;-69
2023/04/08 07:31:12;;;;;;;9.07;4.55;;;;;;;;;;5034293;28;20124;-67
2023/04/08 07:33:39;;;;;;;9.30;4.57;;;;;;;;;;5038325;28;20056;-69
2023/04/08 07:36:06;;;;;;;8.93;4.30;;;;;;;;;;5034322;28;20090;-68
2023/04/08 07:38:34;;;;;;;9.30;4.80;;;;;;;;;;5027086;28;20140;-68
2023/04/08 07:41:01;;;;;;;12.23;4.45;;;;;;;;;;5034721;28;20060;-68
2023/04/08 07:43:27;;;;;;;10.88;5.03;;;;;;;;;;5021902;28;20363;-70
2023/04/08 07:46:01;;;;;;;9.15;4.45;;;;;;;;;;5031638;28;20057;-69
2023/04/08 07:48:33;;;;;;;9.95;4.90;;;;;;;;;;5028940;28;20126;-67
2023/04/08 07:51:03;;;;;;;9.63;4.43;;;;;;;;;;5040742;28;20067;-67
2023/04/08 07:53:30;;;;;;;10.02;5.03;;;;;;;;;;5028219;28;20045;-69
2023/04/08 07:55:57;;;;;;;10.48;4.97;;;;;;;;;;5027861;28;20194;-69
2023/04/08 07:58:26;;;;;;;9.02;4.50;;;;;;;;;;5072828;28;20064;-69
2023/04/08 08:00:53;;;;;;;9.48;4.68;;;;;;;;;;5055499;28;20056;-69
2023/04/08 08:03:31;;;;;;;10.15;4.57;;;;;;;;;;5030575;28;20127;-70
2023/04/08 08:06:00;;;;;;;9.13;4.57;;;;;;;;;;5020257;28;20052;-69
2023/04/08 08:08:26;;;;;;;10.80;4.78;;;;;;;;;;5055804;28;20052;-68
2023/04/08 08:10:59;;;;;;;9.93;5.18;;;;;;;;;;5057513;28;20122;-67
2023/04/08 08:13:26;;;;;;;9.10;4.63;;;;;;;;;;5022498;28;20148;-70
2023/04/08 08:15:57;;;;;;;8.77;4.35;;;;;;;;;;5034691;28;20052;-69
2023/04/08 08:18:26;;;;;;;9.18;4.63;;;;;;;;;;5030662;28;20129;-68
2023/04/08 08:20:52;;;;;;;12.52;5.30;;;;;;;;;;5055207;28;20054;-68
2023/04/08 08:23:18;;;;;;;9.48;4.88;;;;;;;;;;5035555;28;20053;-69
2023/04/08 08:25:45;;;;;;;11.68;5.22;;;;;;;;;;5056404;28;20114;-69
2023/04/08 08:28:15;;;;;;;11.32;4.72;;;;;;;;;;5039514;28;20173;-69
2023/04/08 08:30:41;;;;;;;8.73;4.32;;;;;;;;;;5030666;28;20125;-69
2023/04/08 08:33:11;;;;;;;10.32;5.18;;;;;;;;;;5061191;28;20076;-70
2023/04/08 08:35:40;;;;;;;10.13;5.35;;;;;;;;;;5031661;28;20143;-70
2023/04/08 08:38:06;;;;;;;9.33;4.47;;;;;;;;;;5026283;28;20056;-68
2023/04/08 08:40:33;;;;;;;9.18;4.47;;;;;;;;;;5014096;28;20063;-67
2023/04/08 08:43:02;;;;;;;12.55;5.30;;;;;;;;;;5037917;28;20121;-67
2023/04/08 08:45:29;;;;;;;10.02;5.10;;;;;;;;;;5029324;28;20074;-68
2023/04/08 08:47:56;;;;;;;10.48;5.03;;;;;;;;;;5037423;28;20051;-71
2023/04/08 08:50:23;;;;;;;9.65;4.68;;;;;;;;;;5013411;28;20111;-68
2023/04/08 08:53:09;;;;;;;12.52;5.18;;;;;;;;;;5111562;27;20408;-70
2023/04/08 08:55:39;;;;;;;10.48;4.78;;;;;;;;;;5057809;28;20048;-72
2023/04/08 08:58:06;;;;;;;10.52;5.30;;;;;;;;;;5061717;28;20116;-67
2023/04/08 09:00:35;;;;;;;11.90;5.22;;;;;;;;;;5070024;28;20134;-69
2023/04/08 09:03:16;;;;;;;11.18;5.05;;;;;;;;;;4999902;28;20080;-67
2023/04/08 09:05:50;;;;;;;9.65;4.70;;;;;;;;;;5024635;28;20165;-70
2023/04/08 09:08:28;;;;;;;10.50;5.28;;;;;;;;;;5039970;28;20052;-68
2023/04/08 09:10:55;;;;;;;10.20;5.22;;;;;;;;;;5090592;28;20052;-71
2023/04/08 09:13:22;;;;;;;12.07;5.82;;;;;;;;;;5047536;28;20113;-73
2023/04/08 09:16:03;;;;;;;12.52;5.47;;;;;;;;;;5064698;28;20052;-72
2023/04/08 09:18:30;;;;;;;9.85;5.18;;;;;;;;;;5035177;28;20080;-72
2023/04/08 09:21:01;;;;;;;9.48;5.20;;;;;;;;;;5061405;28;20131;-76
2023/04/08 09:23:46;;;;;;;12.00;6.10;;;;;;;;;;5059140;28;20084;-69
2023/04/08 09:26:17;;;;;;;10.85;5.03;;;;;;;;;;5053529;28;20056;-69
2023/04/08 09:28:44;;;;;;;11.60;5.20;;;;;;;;;;5053443;28;20059;-72
2023/04/08 09:31:20;;;;;;;10.20;5.47;;;;;;;;;;5042650;28;20313;-75
2023/04/08 09:33:47;;;;;;;11.07;5.78;;;;;;;;;;5025903;28;20064;-71
2023/04/08 09:36:17;;;;;;;14.90;6.00;;;;;;;;;;5045087;28;20148;-73
2023/04/08 09:38:47;;;;;;;12.75;6.22;;;;;;;;;;5042791;28;20135;-73
2023/04/08 09:41:45;;;;;;;12.45;5.78;;;;;;;;;;5062819;28;20056;-70
2023/04/08 09:44:23;;;;;;;10.57;5.88;;;;;;;;;;5036270;28;20048;-70
2023/04/08 09:46:50;;;;;;;;;;;;;;;;;;5043474;28;20063;-71
2023/04/08 09:49:18;;;;;;;11.90;5.70;;;;;;;;;;5038384;28;19986;-72
2023/04/08 09:51:49;;;;;;;13.23;5.88;;;;;;;;;;5018264;28;20045;-70
2023/04/08 09:54:21;;;;;;;11.05;5.57;;;;;;;;;;5014140;28;20067;-70
2023/04/08 09:59:38;;;;;;;11.93;6.30;;;;;;;;;;5014704;28;20056;-74
2023/04/08 10:02:07;;;;;;;;;;;;;;;;;;5007850;28;20065;-70
2023/04/08 10:04:36;;;;;;;10.30;5.32;;;;;;;;;;5010178;28;19931;-74
2023/04/08 10:07:04;;;;;;;12.52;5.90;;;;;;;;;;5037910;28;20388;-73
2023/04/08 10:09:34;;;;;;;12.40;5.78;;;;;;;;;;5052514;28;20117;-72
2023/04/08 10:12:01;;;;;;;13.55;5.65;;;;;;;;;;5042221;28;21124;-71
2023/04/08 10:14:31;;;;;;;13.73;6.70;;;;;;;;;;5055137;28;20070;-71
2023/04/08 10:17:12;;;;;;;13.18;5.80;;;;;;;;;;5012185;28;20063;-73
2023/04/08 10:19:40;;;;;;;10.75;5.82;;;;;;;;;;5030601;28;20414;-72
2023/04/08 10:22:31;;;;;;;11.68;6.35;;;;;;;;;;5033044;28;20056;-71
2023/04/08 10:25:19;;;;;;;10.52;5.82;;;;;;;;;;5005726;28;20173;-72
2023/04/08 10:27:48;;;;;;;10.52;5.50;;;;;;;;;;5022993;28;20114;-74
2023/04/08 10:30:30;;;;;;;11.45;6.13;;;;;;;;;;5037302;28;20102;-68
2023/04/08 10:32:58;;;;;;;12.30;6.03;;;;;;;;;;5036248;28;20084;-71
2023/04/08 10:35:36;;;;;;;12.07;5.90;;;;;;;;;;5042135;28;20057;-69
2023/04/08 10:38:03;;;;;;;12.13;6.00;;;;;;;;;;5007241;28;20057;-71
2023/04/08 10:40:36;;;;;;;11.52;5.85;;;;;;;;;;5024517;28;20344;-72
2023/04/08 10:43:08;;;;;;;;;;;;;;;;;;5037922;28;20056;-70
2023/04/08 10:45:35;;;;;;;11.20;5.53;;;;;;;;;;5009609;28;19929;-70
2023/04/08 10:48:15;;;;;;;11.52;5.72;;;;;;;;;;5040071;28;20153;-76
2023/04/08 10:50:54;;;;;;;11.35;5.72;;;;;;;;;;4990060;28;20263;-70
2023/04/08 10:58:47;;;;;;;12.50;6.38;;;;;;;;;;5034212;28;20657;-74
2023/04/08 11:01:14;;;;;;;11.30;5.57;;;;;;;;;;5001389;28;20057;-75
2023/04/08 11:03:43;;;;;;;12.15;5.43;;;;;;;;;;4944103;28;20128;-71
2023/04/08 11:06:14;;;;;;;11.85;5.80;;;;;;;;;;4975961;28;20061;-73
2023/04/08 11:08:55;;;;;;;11.50;5.43;;;;;;;;;;4963702;28;20050;-75
2023/04/08 11:11:28;;;;;;;11.10;5.68;;;;;;;;;;4962532;28;20046;-75
2023/04/08 11:13:56;;;;;;;12.77;6.20;;;;;;;;;;4979119;28;20070;-73
2023/04/08 11:16:33;;;;;;;10.00;5.30;;;;;;;;;;4979881;28;20058;-69
2023/04/08 11:19:02;;;;;;;11.68;5.47;;;;;;;;;;4980257;28;20050;-74
2023/04/08 11:21:29;;;;;;;;;;;;;;;;;;4973052;28;20117;-69
2023/04/08 11:23:55;;;;;;;10.77;5.55;;;;;;;;;;4996650;28;20011;-73
2023/04/08 11:26:23;;;;;;;14.30;5.70;;;;;;;;;;4990590;28;20057;-71
2023/04/08 11:28:50;;;;;;;13.18;5.95;;;;;;;;;;4986911;28;20059;-75
2023/04/08 11:31:19;;;;;;;11.85;5.28;;;;;;;;;;4974825;28;20054;-73
2023/04/08 11:33:46;;;;;;;11.70;5.88;;;;;;;;;;4961893;28;20058;-72
2023/04/08 11:36:13;;;;;;;12.07;5.57;;;;;;;;;;4972169;28;20120;-69
2023/04/08 11:38:42;;;;;;;11.52;5.93;;;;;;;;;;4985728;28;20053;-71
2023/04/08 11:41:11;;;;;;;10.10;5.57;;;;;;;;;;4984469;28;20108;-76
2023/04/08 11:43:39;;;;;;;11.25;5.78;;;;;;;;;;4983192;28;20049;-69
2023/04/08 11:46:14;;;;;;;13.80;6.32;;;;;;;;;;4988107;28;20058;-74
2023/04/08 11:49:00;;;;;;;12.70;5.80;;;;;;;;;;4956280;28;20046;-73
2023/04/08 11:51:27;;;;;;;13.25;5.47;;;;;;;;;;4937539;28;20051;-70
2023/04/08 11:53:54;;;;;;;12.02;5.78;;;;;;;;;;4988704;28;20177;-72
2023/04/08 11:56:23;;;;;;;17.92;6.13;;;;;;;;;;4991662;28;20062;-71
2023/04/08 11:58:52;;;;;;;11.68;5.88;;;;;;;;;;4988929;28;20164;-74
2023/04/08 12:01:25;;;;;;;11.38;5.43;;;;;;;;;;4970776;28;20142;-71
2023/04/08 12:04:00;;;;;;;13.32;5.47;;;;;;;;;;4973990;28;20069;-69
2023/04/08 12:06:27;;;;;;;12.20;5.43;;;;;;;;;;4979048;28;20066;-77
2023/04/08 12:08:54;;;;;;;12.75;5.72;;;;;;;;;;4963732;28;20060;-67
2023/04/08 12:11:27;;;;;;;12.63;5.32;;;;;;;;;;4934636;28;20137;-71
2023/04/08 12:13:53;;;;;;;12.45;5.55;;;;;;;;;;4947506;28;20975;-76
2023/04/08 12:16:20;;;;;;;11.10;5.32;;;;;;;;;;4957514;28;20062;-72
2023/04/08 12:18:47;;;;;;;12.15;5.57;;;;;;;;;;4950765;28;20066;-72
2023/04/08 12:21:15;;;;;;;11.18;5.47;;;;;;;;;;4937593;28;20050;-70
2023/04/08 12:23:42;;;;;;;11.97;5.43;;;;;;;;;;4956964;28;20144;-75
2023/04/08 12:26:12;;;;;;;11.57;5.47;;;;;;;;;;4974394;28;20060;-72
2023/04/08 12:28:40;;;;;;;9.43;5.20;;;;;;;;;;4968189;28;20062;-69
2023/04/08 12:31:07;;;;;;;12.80;5.45;;;;;;;;;;4947974;28;20492;-74
2023/04/08 12:33:35;;;;;;;12.45;5.40;;;;;;;;;;4941335;28;20054;-70
2023/04/08 12:36:03;;;;;;;13.30;5.32;;;;;;;;;;4972953;28;20050;-72
2023/04/08 12:38:32;;;;;;;11.88;5.07;;;;;;;;;;4960761;28;20058;-70
2023/04/08 12:40:59;;;;;;;10.95;5.22;;;;;;;;;;4900155;28;20115;-75
2023/04/08 12:48:53;;;;;;;14.10;5.30;;;;;;;;;;5011874;27;20476;-78
2023/04/08 12:51:26;;;;;;;11.85;5.03;;;;;;;;;;4993962;28;20138;-76
2023/04/08 12:53:54;;;;;;;8.32;4.38;;;;;;;;;;4977280;28;20085;-75
2023/04/08 12:56:26;;;;;;;11.27;5.10;;;;;;;;;;4978161;28;20069;-77
2023/04/08 12:58:54;;;;;;;9.13;4.78;;;;;;;;;;4956347;28;20067;-75
2023/04/08 13:01:29;;;;;;;10.50;4.93;;;;;;;;;;4935705;28;20075;-76
2023/04/08 13:04:02;;;;;;;11.68;4.95;;;;;;;;;;4978120;28;20062;-77
2023/04/08 13:06:32;;;;;;;9.70;4.57;;;;;;;;;;4955418;28;20053;-76
2023/04/08 13:14:07;;;;;;;9.93;4.85;;;;;;;;;;5046552;27;20506;-71
2023/04/08 13:16:35;;;;;;;9.18;4.65;;;;;;;;;;5079232;28;20079;-72
2023/04/08 13:19:02;;;;;;;9.63;4.60;;;;;;;;;;5074273;28;20140;-73
2023/04/08 13:21:30;;;;;;;9.30;4.32;;;;;;;;;;5051778;28;20052;-72
2023/04/08 13:23:58;;;;;;;10.18;4.47;;;;;;;;;;5041207;28;20071;-72
2023/04/08 13:26:28;;;;;;;12.05;4.88;;;;;;;;;;5062402;28;20133;-72
2023/04/08 13:28:54;;;;;;;10.60;4.60;;;;;;;;;;5047004;28;20048;-72
2023/04/08 13:31:30;;;;;;;9.63;4.95;;;;;;;;;;5068066;28;20055;-73
2023/04/08 13:33:57;;;;;;;10.85;4.93;;;;;;;;;;5050802;28;20181;-73
2023/04/08 13:36:24;;;;;;;9.25;4.60;;;;;;;;;;5077300;28;20106;-73
2023/04/08 13:38:56;;;;;;;9.57;4.60;;;;;;;;;;5047392;28;20151;-73
2023/04/08 13:41:28;;;;;;;7.32;3.97;;;;;;;;;;5058705;28;20055;-73
2023/04/08 13:43:55;;;;;;;11.25;4.63;;;;;;;;;;5038459;28;20191;-71
2023/04/08 13:46:23;;;;;;;8.30;4.20;;;;;;;;;;5080139;28;20067;-72
2023/04/08 13:48:50;;;;;;;9.40;4.43;;;;;;;;;;5050549;28;20056;-71
2023/04/08 13:51:21;;;;;;;10.80;4.50;;;;;;;;;;5082210;28;20052;-72
2023/04/08 13:53:53;;;;;;;9.65;4.38;;;;;;;;;;5074442;28;20048;-72
2023/04/08 13:56:20;;;;;;;8.88;4.30;;;;;;;;;;5060883;28;20056;-71
2023/04/08 13:58:46;;;;;;;9.57;3.80;;;;;;;;;;5021640;28;20046;-71
2023/04/08 14:01:13;;;;;;;10.57;4.47;;;;;;;;;;5023515;28;20053;-71
2023/04/08 14:03:42;;;;;;;11.38;4.45;;;;;;;;;;5008367;28;20069;-71
2023/04/08 14:06:12;;;;;;;9.30;4.43;;;;;;;;;;5041022;28;20073;-72
2023/04/08 14:08:39;;;;;;;8.07;3.78;;;;;;;;;;5030991;28;20041;-72
2023/04/08 14:11:08;;;;;;;8.80;4.47;;;;;;;;;;5025378;28;20065;-70
2023/04/08 14:13:35;;;;;;;7.57;3.90;;;;;;;;;;5010257;28;20077;-70
2023/04/08 14:16:02;;;;;;;8.20;3.92;;;;;;;;;;5007909;28;20140;-72
2023/04/08 14:18:28;;;;;;;8.73;3.85;;;;;;;;;;5030200;28;20049;-71
2023/04/08 14:21:01;;;;;;;8.55;4.05;;;;;;;;;;5007505;28;20065;-71
2023/04/08 14:23:36;;;;;;;8.27;4.10;;;;;;;;;;4988966;28;20137;-79
2023/04/08 14:26:06;;;;;;;45.25;23.42;;;;;;;;;;5003680;28;20126;-70
2023/04/08 14:28:33;;;;;;;120.03;60.28;;;;;;;;;;5014862;28;20156;-71
2023/04/08 14:31:00;;;;;;;106.68;55.58;;;;;;;;;;4998276;28;20057;-71
2023/04/08 14:33:30;;;;;;;75.13;38.72;;;;;;;;;;5000675;28;20060;-72
2023/04/08 14:35:59;;;;;;;56.67;31.17;;;;;;;;;;5003437;28;20056;-70
2023/04/08 14:38:25;;;;;;;40.88;24.00;;;;;;;;;;5007703;28;20056;-71
2023/04/08 14:40:53;;;;;;;39.05;22.27;;;;;;;;;;5037423;28;20094;-69
2023/04/08 14:43:23;;;;;;;35.72;21.00;;;;;;;;;;5011934;28;20045;-70
2023/04/08 14:45:50;;;;;;;34.47;19.95;;;;;;;;;;5009230;28;20063;-72
2023/04/08 14:48:17;;;;;;;32.90;19.40;;;;;;;;;;5013899;28;20049;-71
2023/04/08 14:50:43;;;;;;;33.60;18.17;;;;;;;;;;5016207;28;20155;-70
2023/04/08 14:53:16;;;;;;;30.23;17.83;;;;;;;;;;5013731;28;20053;-72
2023/04/08 14:55:42;;;;;;;29.45;15.43;;;;;;;;;;5026696;28;20049;-71
2023/04/08 14:58:12;;;;;;;27.83;14.50;;;;;;;;;;5028118;28;20087;-70
2023/04/08 15:00:43;;;;;;;23.98;13.90;;;;;;;;;;5034448;28;20053;-72
2023/04/08 15:03:10;;;;;;;25.40;14.10;;;;;;;;;;5032134;28;20131;-71